createdAt,value
2019-01-17T00:01:58.186Z,17.53
2019-01-17T00:04:57.639Z,12.23
2019-01-17T00:07:45.817Z,14.30
2019-01-17T00:10:31.479Z,11.80
2019-01-17T00:13:17.355Z,12.17
2019-01-17T00:16:19.701Z,17.23
2019-01-17T00:19:06.850Z,19.63
2019-01-17T00:22:11.975Z,27.07
2019-01-17T00:24:58.041Z,24.10
2019-01-17T00:27:47.740Z,25.77
2019-01-17T00:30:33.472Z,32.40
2019-01-17T00:33:27.095Z,28.50
2019-01-17T00:36:08.575Z,29.40
2019-01-17T00:38:54.542Z,30.60
2019-01-17T00:41:30.908Z,28.83
2019-01-17T00:44:18.448Z,30.73
2019-01-17T00:47:04.286Z,25.57
2019-01-17T00:49:54.207Z,32.20
2019-01-17T00:52:59.359Z,39.13
2019-01-17T00:55:36.945Z,35.47
2019-01-17T00:58:30.063Z,41.33
2019-01-17T01:01:23.076Z,35.83
2019-01-17T01:04:16.396Z,33.33
2019-01-17T01:07:03.547Z,37.10
2019-01-17T01:09:56.489Z,36.83
2019-01-17T01:12:43.983Z,38.83
2019-01-17T01:15:37.092Z,38.80
2019-01-17T01:18:27.869Z,38.07
2019-01-17T01:21:14.207Z,35.73
2019-01-17T01:24:01.375Z,31.87
2019-01-17T01:26:47.312Z,34.87
2019-01-17T01:29:37.282Z,33.63
2019-01-17T01:32:24.800Z,30.00
2019-01-17T01:35:09.989Z,27.60
2019-01-17T01:38:03.275Z,24.17
2019-01-17T01:40:46.444Z,23.23
2019-01-17T01:43:32.481Z,24.07
2019-01-17T01:46:34.645Z,24.00
2019-01-17T01:49:30.246Z,25.17
2019-01-17T01:52:17.434Z,28.60
2019-01-17T01:54:45.104Z,27.07
2019-01-17T01:57:12.825Z,27.30
2019-01-17T01:59:40.468Z,29.13
2019-01-17T02:02:08.094Z,31.17
2019-01-17T02:04:36.078Z,30.70
2019-01-17T02:07:03.712Z,39.27
2019-01-17T02:09:31.410Z,39.63
2019-01-17T02:11:59.062Z,35.10
2019-01-17T02:14:26.854Z,38.50
2019-01-17T02:16:54.529Z,38.90
2019-01-17T02:19:22.208Z,37.07
2019-01-17T02:21:49.867Z,38.30
2019-01-17T02:24:17.545Z,38.70
2019-01-17T02:26:45.579Z,40.90
2019-01-17T02:29:13.916Z,44.97
2019-01-17T02:31:41.506Z,40.00
2019-01-17T02:34:09.148Z,47.40
2019-01-17T02:36:36.833Z,51.23
2019-01-17T02:39:05.761Z,50.40
2019-01-17T02:41:33.470Z,57.90
2019-01-17T02:44:03.914Z,52.97
2019-01-17T02:46:31.854Z,61.67
2019-01-17T02:49:00.190Z,60.77
2019-01-17T02:51:27.899Z,68.93
2019-01-17T02:53:55.926Z,62.93
2019-01-17T02:56:23.983Z,67.83
2019-01-17T02:58:51.610Z,65.13
2019-01-17T03:01:19.260Z,68.20
2019-01-17T03:03:46.894Z,86.83
2019-01-17T03:06:14.872Z,74.30
2019-01-17T03:08:42.593Z,88.13
2019-01-17T03:11:10.258Z,71.57
2019-01-17T03:13:37.936Z,79.43
2019-01-17T03:16:05.574Z,77.90
2019-01-17T03:18:33.227Z,77.73
2019-01-17T03:21:01.035Z,82.67
2019-01-17T03:23:28.648Z,85.63
2019-01-17T03:25:56.312Z,86.47
2019-01-17T03:28:23.971Z,83.07
2019-01-17T03:30:51.594Z,88.07
2019-01-17T03:33:19.269Z,88.33
2019-01-17T03:35:46.933Z,82.97
2019-01-17T03:38:14.567Z,95.30
2019-01-17T03:40:42.272Z,93.73
2019-01-17T03:43:09.896Z,96.97
2019-01-17T03:45:37.578Z,109.30
2019-01-17T03:48:05.521Z,110.30
2019-01-17T03:50:33.177Z,105.13
2019-01-17T03:53:00.839Z,109.10
2019-01-17T03:55:28.809Z,116.97
2019-01-17T03:57:56.571Z,110.93
2019-01-17T04:00:24.651Z,102.83
2019-01-17T04:02:52.517Z,100.03
2019-01-17T04:05:20.086Z,105.83
2019-01-17T04:07:47.736Z,109.37
2019-01-17T04:10:15.619Z,110.07
2019-01-17T04:12:43.261Z,94.80
2019-01-17T04:15:11.583Z,109.23
2019-01-17T04:17:39.601Z,103.97
2019-01-17T04:20:09.173Z,98.27
2019-01-17T04:22:36.812Z,104.77
2019-01-17T04:25:04.815Z,99.30
2019-01-17T04:27:32.457Z,94.07
2019-01-17T04:30:00.217Z,95.40
2019-01-17T04:32:27.832Z,92.10
2019-01-17T04:34:55.444Z,104.37
2019-01-17T04:37:23.450Z,101.53
2019-01-17T04:39:51.448Z,97.83
2019-01-17T04:42:19.124Z,100.63
2019-01-17T04:44:46.834Z,100.20
2019-01-17T04:47:14.521Z,103.67
2019-01-17T04:49:42.197Z,101.20
2019-01-17T04:52:09.911Z,99.03
2019-01-17T04:54:38.559Z,101.40
2019-01-17T04:57:06.275Z,101.53
2019-01-17T04:59:34.059Z,94.17
2019-01-17T05:02:01.701Z,103.27
2019-01-17T05:04:29.702Z,95.07
2019-01-17T05:06:58.051Z,99.10
2019-01-17T05:09:25.729Z,93.60
2019-01-17T05:11:54.199Z,91.73
2019-01-17T05:14:21.882Z,88.73
2019-01-17T05:16:49.915Z,84.00
2019-01-17T05:19:17.628Z,83.33
2019-01-17T05:21:45.326Z,89.93
2019-01-17T05:24:12.970Z,81.57
2019-01-17T05:26:41.866Z,85.87
2019-01-17T05:29:09.852Z,87.93
2019-01-17T05:31:37.543Z,87.93
2019-01-17T05:34:05.223Z,81.43
2019-01-17T05:36:32.959Z,87.83
2019-01-17T05:39:00.651Z,78.90
2019-01-17T05:41:28.537Z,74.30
2019-01-17T05:43:56.224Z,66.03
2019-01-17T05:46:23.928Z,76.53
2019-01-17T05:48:51.706Z,62.33
2019-01-17T05:51:19.601Z,61.90
2019-01-17T05:53:47.350Z,53.30
2019-01-17T05:56:15.354Z,54.03
2019-01-17T05:58:43.425Z,54.63
2019-01-17T06:01:11.473Z,46.90
2019-01-17T06:03:39.139Z,42.07
2019-01-17T06:06:06.804Z,42.07
2019-01-17T06:08:34.786Z,37.13
2019-01-17T06:11:02.591Z,36.80
2019-01-17T06:13:30.243Z,29.77
2019-01-17T06:15:58.178Z,21.67
2019-01-17T06:18:25.841Z,25.47
2019-01-17T06:20:53.575Z,19.77
2019-01-17T06:23:22.017Z,17.63
2019-01-17T06:25:49.755Z,16.27
2019-01-17T06:28:17.872Z,15.47
2019-01-17T06:30:45.666Z,12.57
2019-01-17T06:33:13.446Z,12.67
2019-01-17T06:35:41.131Z,15.37
2019-01-17T06:38:08.866Z,13.73
2019-01-17T06:40:36.553Z,10.83
2019-01-17T06:43:04.750Z,8.17
2019-01-17T06:45:32.555Z,9.77
2019-01-17T06:48:01.551Z,8.03
2019-01-17T06:50:29.630Z,7.37
2019-01-17T06:52:57.383Z,7.47
2019-01-17T06:55:25.057Z,6.80
2019-01-17T06:57:53.116Z,6.80
2019-01-17T07:00:20.717Z,7.53
2019-01-17T07:02:48.713Z,3.20
2019-01-17T07:05:16.263Z,6.17
2019-01-17T07:07:44.052Z,3.47
2019-01-17T07:10:12.642Z,7.17
2019-01-17T07:12:40.322Z,4.67
2019-01-17T07:15:08.595Z,5.20
2019-01-17T07:17:36.648Z,2.67
2019-01-17T07:20:04.821Z,2.00
2019-01-17T07:22:32.505Z,3.70
2019-01-17T07:25:00.246Z,2.60
2019-01-17T07:27:28.297Z,2.90
2019-01-17T07:29:55.983Z,3.03
2019-01-17T07:32:23.739Z,5.30
2019-01-17T07:34:51.710Z,1.90
2019-01-17T07:37:19.327Z,5.23
2019-01-17T07:39:47.052Z,4.70
2019-01-17T07:42:14.723Z,3.50
2019-01-17T07:44:42.434Z,9.07
2019-01-17T07:47:10.195Z,4.63
2019-01-17T07:49:37.895Z,4.27
2019-01-17T07:52:05.535Z,18.03
2019-01-17T07:54:33.327Z,17.57
2019-01-17T07:57:01.352Z,13.83
2019-01-17T07:59:29.042Z,9.63
2019-01-17T08:01:57.128Z,10.60
2019-01-17T08:04:24.795Z,9.03
2019-01-17T08:06:56.716Z,5.53
2019-01-17T08:09:22.878Z,5.17
2019-01-17T08:11:51.332Z,5.50
2019-01-17T08:14:19.025Z,6.50
2019-01-17T08:16:47.023Z,4.87
2019-01-17T08:19:14.762Z,6.00
2019-01-17T08:21:42.410Z,5.20
2019-01-17T08:24:10.472Z,5.70
2019-01-17T08:26:38.257Z,5.23
2019-01-17T08:29:05.929Z,4.43
2019-01-17T08:31:33.989Z,4.53
2019-01-17T08:34:01.717Z,5.73
2019-01-17T08:36:29.381Z,4.37
2019-01-17T08:38:57.475Z,4.90
2019-01-17T08:41:25.231Z,4.93
2019-01-17T08:43:53.312Z,5.17
2019-01-17T08:46:20.972Z,5.03
2019-01-17T08:48:48.759Z,4.97
2019-01-17T08:51:16.475Z,5.60
2019-01-17T08:53:44.209Z,6.30
2019-01-17T08:56:12.544Z,6.33
2019-01-17T08:58:40.150Z,6.17
2019-01-17T09:01:07.789Z,6.73
2019-01-17T09:03:36.692Z,6.57
2019-01-17T09:06:04.877Z,6.60
2019-01-17T09:08:32.558Z,7.13
2019-01-17T09:11:00.274Z,8.40
2019-01-17T09:13:27.915Z,7.37
2019-01-17T09:15:56.382Z,6.73
2019-01-17T09:18:24.070Z,6.73
2019-01-17T09:20:51.771Z,5.83
2019-01-17T09:23:20.723Z,7.10
2019-01-17T09:25:48.987Z,8.77
2019-01-17T09:28:17.117Z,7.53
2019-01-17T09:30:44.812Z,5.87
2019-01-17T09:33:12.858Z,9.50
2019-01-17T09:35:41.056Z,7.70
2019-01-17T09:38:08.745Z,6.60
2019-01-17T09:40:36.471Z,10.67
2019-01-17T09:43:04.620Z,13.17
2019-01-17T09:45:32.306Z,13.63
2019-01-17T09:48:02.072Z,11.93
2019-01-17T09:50:29.989Z,11.37
2019-01-17T09:52:57.651Z,6.30
2019-01-17T09:55:25.687Z,8.80
2019-01-17T09:57:53.433Z,7.73
2019-01-17T10:00:25.078Z,2.23
2019-01-17T10:02:53.131Z,3.40
2019-01-17T10:05:20.901Z,5.00
2019-01-17T10:07:48.707Z,4.27
2019-01-17T10:10:16.866Z,2.50
2019-01-17T10:12:44.723Z,0.43
2019-01-17T10:15:14.393Z,2.83
2019-01-17T10:18:10.543Z,3.63
2019-01-17T10:20:56.356Z,3.83
2019-01-17T10:23:43.542Z,1.53
2019-01-17T10:26:23.104Z,3.20
2019-01-17T10:29:11.686Z,6.13
2019-01-17T10:31:57.919Z,0.20
2019-01-17T10:34:36.689Z,5.90
2019-01-17T10:37:20.010Z,5.73
2019-01-17T10:40:07.830Z,5.57
2019-01-17T10:43:10.596Z,3.10
2019-01-17T10:46:29.162Z,2.93
2019-01-17T10:49:33.887Z,6.53
2019-01-17T10:52:47.124Z,2.27
2019-01-17T10:56:00.434Z,8.13
2019-01-17T10:58:47.726Z,2.03
2019-01-17T11:01:21.900Z,0.93
2019-01-17T11:04:19.460Z,8.80
2019-01-17T11:07:06.987Z,5.90
2019-01-17T11:10:00.264Z,1.77
2019-01-17T11:12:47.567Z,2.30
2019-01-17T11:15:53.224Z,4.73
2019-01-17T11:18:41.557Z,3.10
2019-01-17T11:21:27.196Z,3.27
2019-01-17T11:24:16.412Z,5.40
2019-01-17T11:27:10.651Z,8.80
2019-01-17T11:30:30.164Z,6.30
2019-01-17T11:33:01.455Z,12.67
2019-01-17T11:35:54.446Z,9.00
2019-01-17T11:38:33.804Z,1.27
2019-01-17T11:41:24.721Z,8.23
2019-01-17T11:44:27.070Z,5.90
2019-01-17T11:47:16.670Z,5.27
2019-01-17T11:49:57.618Z,9.10
2019-01-17T11:52:37.269Z,11.53
2019-01-17T11:55:39.555Z,6.57
2019-01-17T11:58:13.904Z,2.43
2019-01-17T12:00:47.361Z,8.90
2019-01-17T12:03:53.045Z,9.23
2019-01-17T12:06:21.124Z,4.87
2019-01-17T12:08:48.875Z,12.13
2019-01-17T12:11:16.683Z,6.83
2019-01-17T12:13:44.801Z,10.13
2019-01-17T12:16:12.570Z,14.27
2019-01-17T12:18:41.821Z,8.80
2019-01-17T12:21:10.787Z,10.90
2019-01-17T12:23:38.820Z,16.20
2019-01-17T12:26:06.583Z,10.70
2019-01-17T12:28:34.723Z,6.30
2019-01-17T12:31:02.482Z,14.33
2019-01-17T12:33:30.488Z,7.93
2019-01-17T12:35:58.156Z,12.97
2019-01-17T12:38:25.959Z,10.43
2019-01-17T12:40:53.584Z,9.27
2019-01-17T12:43:22.056Z,7.17
2019-01-17T12:45:56.572Z,10.93
2019-01-17T12:48:24.271Z,5.70
2019-01-17T12:50:51.934Z,8.17
2019-01-17T12:53:21.177Z,5.80
2019-01-17T12:55:49.243Z,4.10
2019-01-17T12:58:16.928Z,3.30
2019-01-17T13:00:44.692Z,7.03
2019-01-17T13:03:12.432Z,2.23
2019-01-17T13:05:40.149Z,4.30
2019-01-17T13:08:30.638Z,7.33
2019-01-17T13:10:58.356Z,4.77
2019-01-17T13:13:35.695Z,2.50
2019-01-17T13:16:03.393Z,5.13
2019-01-17T13:18:31.035Z,3.53
2019-01-17T13:20:58.785Z,5.57
2019-01-17T13:23:26.425Z,6.23
2019-01-17T13:25:59.253Z,5.77
2019-01-17T13:28:26.912Z,4.43
2019-01-17T13:31:09.066Z,6.67
2019-01-17T13:33:36.736Z,3.23
2019-01-17T13:36:06.529Z,6.13
2019-01-17T13:38:51.752Z,3.77
2019-01-17T13:41:19.777Z,6.63
2019-01-17T13:43:47.364Z,4.47
2019-01-17T13:46:30.104Z,6.87
2019-01-17T13:48:57.836Z,4.67
2019-01-17T13:51:25.552Z,4.87
2019-01-17T13:53:54.318Z,9.07
2019-01-17T13:56:21.963Z,6.73
2019-01-17T13:58:49.747Z,5.10
2019-01-17T14:01:18.732Z,11.40
2019-01-17T14:03:46.448Z,8.87
2019-01-17T14:06:14.180Z,7.80
2019-01-17T14:08:42.917Z,7.20
2019-01-17T14:11:10.682Z,7.13
2019-01-17T14:13:38.346Z,8.77
2019-01-17T14:16:17.529Z,7.17
2019-01-17T14:18:46.745Z,9.40
2019-01-17T14:21:14.767Z,12.87
2019-01-17T14:23:42.735Z,8.53
2019-01-17T14:26:16.382Z,6.37
2019-01-17T14:28:47.139Z,9.47
2019-01-17T14:31:14.795Z,4.23
2019-01-17T14:33:42.901Z,9.00
2019-01-17T14:36:10.560Z,6.57
2019-01-17T14:38:38.266Z,6.90
2019-01-17T14:41:14.170Z,9.77
2019-01-17T14:43:41.875Z,8.33
2019-01-17T14:46:09.573Z,3.67
2019-01-17T14:48:51.368Z,10.40
2019-01-17T14:51:19.365Z,8.03
2019-01-17T14:53:48.251Z,7.37
2019-01-17T14:56:15.955Z,7.53
2019-01-17T14:58:43.960Z,7.23
2019-01-17T15:01:11.620Z,6.77
2019-01-17T15:03:39.279Z,2.87
2019-01-17T15:06:08.094Z,6.57
2019-01-17T15:08:35.794Z,7.20
2019-01-17T15:11:03.867Z,7.00
2019-01-17T15:13:31.629Z,5.90
2019-01-17T15:15:59.239Z,7.30
2019-01-17T15:18:26.983Z,6.07
2019-01-17T15:20:54.740Z,7.30
2019-01-17T15:23:22.468Z,8.90
2019-01-17T15:25:50.128Z,5.20
2019-01-17T15:28:17.863Z,8.47
2019-01-17T15:30:45.639Z,4.47
2019-01-17T15:33:14.099Z,7.53
2019-01-17T15:35:42.528Z,12.83
2019-01-17T15:38:11.376Z,3.77
2019-01-17T15:40:39.511Z,11.50
2019-01-17T15:43:07.958Z,7.27
2019-01-17T15:45:35.886Z,7.47
2019-01-17T15:48:04.396Z,6.60
2019-01-17T15:50:32.072Z,6.80
2019-01-17T15:52:59.745Z,5.20
2019-01-17T15:55:27.459Z,6.30
2019-01-17T15:57:55.173Z,7.47
2019-01-17T16:00:30.743Z,6.83
2019-01-17T16:02:58.415Z,3.43
2019-01-17T16:05:26.505Z,10.20
2019-01-17T16:07:54.779Z,11.17
2019-01-17T16:10:22.521Z,5.60
2019-01-17T16:12:50.630Z,1.23
2019-01-17T16:15:19.554Z,5.13
2019-01-17T16:17:47.265Z,4.27
2019-01-17T16:20:15.049Z,5.33
2019-01-17T16:22:43.302Z,7.83
2019-01-17T16:25:11.631Z,6.70
2019-01-17T16:27:41.892Z,8.93
2019-01-17T16:30:13.475Z,7.03
2019-01-17T16:32:41.185Z,6.47
2019-01-17T16:35:08.946Z,9.73
2019-01-17T16:37:36.782Z,9.63
2019-01-17T16:40:05.344Z,11.13
2019-01-17T16:42:33.027Z,8.27
2019-01-17T16:45:01.361Z,14.97
2019-01-17T16:47:29.064Z,15.20
2019-01-17T16:49:57.112Z,13.60
2019-01-17T16:52:24.887Z,11.57
2019-01-17T16:54:52.551Z,11.37
2019-01-17T16:57:20.248Z,8.27
2019-01-17T16:59:48.004Z,22.37
2019-01-17T17:02:15.675Z,14.87
2019-01-17T17:04:43.409Z,7.93
2019-01-17T17:07:11.094Z,12.87
2019-01-17T17:09:38.819Z,10.97
2019-01-17T17:12:06.570Z,18.03
2019-01-17T17:14:34.226Z,13.57
2019-01-17T17:17:02.020Z,8.70
2019-01-17T17:19:29.752Z,5.50
2019-01-17T17:21:57.573Z,17.73
2019-01-17T17:24:25.709Z,8.63
2019-01-17T17:26:53.852Z,5.20
2019-01-17T17:29:21.640Z,9.30
2019-01-17T17:31:49.685Z,6.67
2019-01-17T17:34:17.716Z,10.03
2019-01-17T17:36:45.477Z,7.93
2019-01-17T17:39:13.304Z,6.80
2019-01-17T17:41:42.318Z,4.03
2019-01-17T17:44:10.452Z,5.13
2019-01-17T17:46:38.652Z,7.87
2019-01-17T17:49:06.404Z,8.53
2019-01-17T17:51:34.478Z,12.33
2019-01-17T17:54:02.311Z,3.60
2019-01-17T17:56:32.078Z,5.13
2019-01-17T17:58:59.895Z,8.10
2019-01-17T18:01:32.064Z,2.03
2019-01-17T18:04:01.347Z,7.27
2019-01-17T18:06:29.231Z,5.87
2019-01-17T18:08:56.990Z,4.83
2019-01-17T18:11:24.705Z,4.80
2019-01-17T18:13:52.389Z,12.83
2019-01-17T18:16:20.142Z,7.73
2019-01-17T18:18:48.291Z,8.00
2019-01-17T18:21:16.003Z,12.90
2019-01-17T18:23:43.718Z,8.23
2019-01-17T18:26:11.433Z,9.67
2019-01-17T18:28:39.919Z,16.60
2019-01-17T18:31:07.879Z,13.93
2019-01-17T18:33:35.601Z,8.63
2019-01-17T18:36:03.747Z,14.83
2019-01-17T18:38:31.416Z,14.90
2019-01-17T18:40:59.109Z,15.83
2019-01-17T18:43:26.827Z,21.00
2019-01-17T18:45:54.544Z,16.03
2019-01-17T18:48:24.470Z,19.33
2019-01-17T18:50:52.148Z,19.53
2019-01-17T18:53:19.879Z,7.10
2019-01-17T18:55:47.661Z,10.70
2019-01-17T18:58:15.771Z,4.67
2019-01-17T19:00:44.181Z,5.17
2019-01-17T19:03:11.830Z,6.03
2019-01-17T19:05:39.551Z,4.53
2019-01-17T19:08:07.282Z,5.60
2019-01-17T19:10:35.021Z,4.17
2019-01-17T19:13:02.807Z,7.80
2019-01-17T19:15:31.439Z,6.30
2019-01-17T19:17:59.211Z,7.00
2019-01-17T19:20:27.209Z,10.33
2019-01-17T19:22:54.979Z,12.80
2019-01-17T19:25:23.022Z,11.40
2019-01-17T19:27:50.901Z,11.40
2019-01-17T19:30:19.707Z,6.53
2019-01-17T19:32:47.414Z,10.17
2019-01-17T19:35:15.426Z,4.57
2019-01-17T19:37:43.244Z,10.27
2019-01-17T19:40:12.544Z,10.57
2019-01-17T19:42:40.197Z,4.80
2019-01-17T19:45:08.502Z,6.43
2019-01-17T19:47:36.288Z,7.33
2019-01-17T19:50:05.696Z,3.33
2019-01-17T19:52:33.494Z,4.70
2019-01-17T19:55:01.190Z,8.30
2019-01-17T19:57:28.903Z,6.53
2019-01-17T19:59:57.025Z,5.33
2019-01-17T20:02:24.782Z,2.33
2019-01-17T20:04:52.455Z,4.13
2019-01-17T20:07:20.297Z,8.17
2019-01-17T20:09:47.965Z,9.43
2019-01-17T20:12:15.789Z,4.63
2019-01-17T20:14:43.776Z,7.60
2019-01-17T20:17:11.574Z,6.07
2019-01-17T20:19:39.241Z,4.83
2019-01-17T20:22:06.990Z,2.80
2019-01-17T20:24:34.651Z,5.83
2019-01-17T20:27:02.797Z,10.97
2019-01-17T20:29:30.484Z,4.23
2019-01-17T20:31:58.645Z,13.60
2019-01-17T20:34:26.723Z,10.17
2019-01-17T20:36:54.472Z,8.83
2019-01-17T20:39:22.167Z,13.30
2019-01-17T20:41:49.973Z,15.63
2019-01-17T20:44:17.711Z,16.87
2019-01-17T20:46:45.411Z,6.20
2019-01-17T20:49:13.103Z,10.77
2019-01-17T20:51:40.770Z,11.17
2019-01-17T20:54:08.453Z,10.37
2019-01-17T20:56:36.861Z,1.30
2019-01-17T20:59:04.519Z,2.83
2019-01-17T21:01:51.729Z,2.90
2019-01-17T21:04:19.690Z,1.83
2019-01-17T21:06:47.403Z,3.43
2019-01-17T21:09:15.183Z,3.20
2019-01-17T21:11:42.903Z,2.03
2019-01-17T21:14:10.980Z,2.93
2019-01-17T21:16:38.706Z,1.03
2019-01-17T21:19:06.418Z,1.53
2019-01-17T21:21:34.203Z,5.40
2019-01-17T21:24:01.867Z,2.53
2019-01-17T21:26:29.715Z,9.80
2019-01-17T21:28:57.698Z,7.90
2019-01-17T21:31:25.446Z,2.63
2019-01-17T21:33:53.230Z,6.00
2019-01-17T21:36:20.921Z,5.90
2019-01-17T21:38:48.627Z,2.03
2019-01-17T21:41:16.670Z,4.93
2019-01-17T21:43:44.385Z,16.43
2019-01-17T21:46:12.135Z,7.17
2019-01-17T21:48:40.145Z,5.77
2019-01-17T21:51:07.887Z,11.80
2019-01-17T21:53:35.972Z,8.33
2019-01-17T21:56:04.004Z,10.10
2019-01-17T21:58:32.075Z,9.27
2019-01-17T22:01:00.165Z,5.03
2019-01-17T22:03:27.911Z,9.70
2019-01-17T22:05:55.603Z,7.93
2019-01-17T22:08:23.303Z,9.60
2019-01-17T22:10:50.994Z,8.93
2019-01-17T22:13:18.651Z,7.43
2019-01-17T22:15:46.413Z,24.70
2019-01-17T22:18:14.131Z,17.53
2019-01-17T22:20:41.813Z,26.10
2019-01-17T22:23:09.529Z,69.87
2019-01-17T22:25:37.522Z,32.50
2019-01-17T22:28:05.186Z,30.30
2019-01-17T22:30:32.882Z,32.40
2019-01-17T22:33:00.702Z,33.47
2019-01-17T22:35:28.398Z,33.30
2019-01-17T22:37:56.425Z,25.77
2019-01-17T22:40:24.112Z,35.70
2019-01-17T22:42:51.897Z,32.20
2019-01-17T22:45:20.869Z,21.93
2019-01-17T22:47:48.581Z,19.70
2019-01-17T22:50:16.834Z,19.50
2019-01-17T22:52:44.611Z,20.80
2019-01-17T22:55:12.327Z,20.97
2019-01-17T22:57:40.419Z,29.47
2019-01-17T23:00:49.317Z,31.97
2019-01-17T23:03:18.100Z,33.70
2019-01-17T23:05:45.754Z,34.93
2019-01-17T23:08:13.855Z,31.87
2019-01-17T23:10:41.599Z,27.50
2019-01-17T23:13:09.258Z,30.87
2019-01-17T23:15:37.015Z,34.90
2019-01-17T23:18:04.781Z,33.27
2019-01-17T23:20:32.808Z,29.80
2019-01-17T23:23:00.947Z,28.43
2019-01-17T23:25:28.617Z,30.20
2019-01-17T23:27:56.345Z,29.70
2019-01-17T23:30:24.398Z,22.63
2019-01-17T23:32:52.007Z,20.67
2019-01-17T23:35:19.740Z,18.67
2019-01-17T23:37:47.401Z,23.27
2019-01-17T23:40:15.445Z,15.20
2019-01-17T23:42:43.322Z,18.30
2019-01-17T23:45:11.020Z,15.87
2019-01-17T23:47:39.069Z,17.87
2019-01-17T23:50:06.890Z,14.47
2019-01-17T23:52:34.912Z,13.10
2019-01-17T23:55:02.789Z,18.97
2019-01-17T23:57:30.434Z,17.53
2019-01-17T23:59:58.247Z,15.40
